sensor_id;sensor_type;location;lat;lon;timestamp;pressure;altitude;pressure_sealevel;temperature;humidity
64503;BME280;50971;51.940;21.258;2024-01-27T00:05:21;100314.50;;;2.12;100.00
64503;BME280;50971;51.940;21.258;2024-01-27T00:15:23;100328.99;;;2.54;100.00
64503;BME280;50971;51.940;21.258;2024-01-27T00:25:25;100351.78;;;3.04;100.00
64503;BME280;50971;51.940;21.258;2024-01-27T00:35:27;100386.03;;;3.26;100.00
64503;BME280;50971;51.940;21.258;2024-01-27T00:45:29;100394.04;;;3.26;100.00
64503;BME280;50971;51.940;21.258;2024-01-27T00:55:31;100418.98;;;3.26;100.00
64503;BME280;50971;51.940;21.258;2024-01-27T01:05:33;100425.16;;;3.22;100.00
64503;BME280;50971;51.940;21.258;2024-01-27T01:15:35;100435.42;;;3.07;100.00
64503;BME280;50971;51.940;21.258;2024-01-27T01:25:37;100453.94;;;3.05;100.00
64503;BME280;50971;51.940;21.258;2024-01-27T01:35:39;100471.33;;;2.98;100.00
64503;BME280;50971;51.940;21.258;2024-01-27T01:45:41;100489.23;;;2.78;100.00
64503;BME280;50971;51.940;21.258;2024-01-27T01:55:42;100508.71;;;2.61;100.00
64503;BME280;50971;51.940;21.258;2024-01-27T02:05:44;100520.95;;;2.57;100.00
64503;BME280;50971;51.940;21.258;2024-01-27T02:15:47;100532.11;;;2.65;100.00
64503;BME280;50971;51.940;21.258;2024-01-27T02:25:49;100542.40;;;2.77;100.00
64503;BME280;50971;51.940;21.258;2024-01-27T02:35:52;100551.70;;;2.85;100.00
64503;BME280;50971;51.940;21.258;2024-01-27T02:45:54;100556.38;;;2.90;100.00
64503;BME280;50971;51.940;21.258;2024-01-27T02:55:55;100560.61;;;2.96;100.00
64503;BME280;50971;51.940;21.258;2024-01-27T03:05:57;100575.05;;;2.98;100.00
64503;BME280;50971;51.940;21.258;2024-01-27T03:15:59;100581.87;;;3.04;100.00
64503;BME280;50971;51.940;21.258;2024-01-27T03:26:02;100593.22;;;3.10;100.00
64503;BME280;50971;51.940;21.258;2024-01-27T03:36:09;100601.13;;;3.16;100.00
64503;BME280;50971;51.940;21.258;2024-01-27T03:46:12;100609.95;;;3.16;100.00
64503;BME280;50971;51.940;21.258;2024-01-27T03:56:13;100623.44;;;3.20;100.00
64503;BME280;50971;51.940;21.258;2024-01-27T04:06:15;100616.53;;;3.25;100.00
64503;BME280;50971;51.940;21.258;2024-01-27T04:16:17;100627.19;;;3.26;100.00
64503;BME280;50971;51.940;21.258;2024-01-27T04:26:19;100634.31;;;3.29;100.00
64503;BME280;50971;51.940;21.258;2024-01-27T04:36:25;100650.16;;;3.28;100.00
64503;BME280;50971;51.940;21.258;2024-01-27T04:46:28;100662.02;;;3.25;100.00
64503;BME280;50971;51.940;21.258;2024-01-27T04:56:30;100673.58;;;3.17;100.00
64503;BME280;50971;51.940;21.258;2024-01-27T05:06:32;100674.30;;;3.13;100.00
64503;BME280;50971;51.940;21.258;2024-01-27T05:16:34;100676.16;;;3.12;100.00
64503;BME280;50971;51.940;21.258;2024-01-27T05:26:36;100678.19;;;3.10;100.00
64503;BME280;50971;51.940;21.258;2024-01-27T05:36:37;100678.11;;;3.19;100.00
64503;BME280;50971;51.940;21.258;2024-01-27T05:46:39;100685.04;;;3.20;100.00
64503;BME280;50971;51.940;21.258;2024-01-27T05:56:41;100695.32;;;3.20;100.00
64503;BME280;50971;51.940;21.258;2024-01-27T06:06:43;100698.34;;;3.12;100.00
64503;BME280;50971;51.940;21.258;2024-01-27T06:16:45;100700.20;;;3.17;100.00
64503;BME280;50971;51.940;21.258;2024-01-27T06:26:47;100698.60;;;3.29;100.00
64503;BME280;50971;51.940;21.258;2024-01-27T06:36:49;100707.91;;;3.30;100.00
64503;BME280;50971;51.940;21.258;2024-01-27T06:46:51;100707.52;;;3.40;100.00
64503;BME280;50971;51.940;21.258;2024-01-27T06:56:52;100714.40;;;3.43;100.00
64503;BME280;50971;51.940;21.258;2024-01-27T07:06:54;100720.14;;;3.44;100.00
64503;BME280;50971;51.940;21.258;2024-01-27T07:16:56;100724.52;;;3.51;100.00
64503;BME280;50971;51.940;21.258;2024-01-27T07:27:00;100728.20;;;3.43;100.00
64503;BME280;50971;51.940;21.258;2024-01-27T07:37:02;100733.24;;;3.41;100.00
64503;BME280;50971;51.940;21.258;2024-01-27T07:47:04;100736.42;;;3.41;100.00
64503;BME280;50971;51.940;21.258;2024-01-27T07:57:06;100749.94;;;3.53;100.00
64503;BME280;50971;51.940;21.258;2024-01-27T08:07:08;100757.04;;;3.58;100.00
64503;BME280;50971;51.940;21.258;2024-01-27T08:17:11;100756.67;;;3.66;100.00
64503;BME280;50971;51.940;21.258;2024-01-27T08:27:15;100764.23;;;3.71;100.00
64503;BME280;50971;51.940;21.258;2024-01-27T08:37:20;100779.67;;;3.72;100.00
64503;BME280;50971;51.940;21.258;2024-01-27T08:47:22;100781.77;;;3.84;100.00
64503;BME280;50971;51.940;21.258;2024-01-27T08:57:24;100788.55;;;3.88;100.00
64503;BME280;50971;51.940;21.258;2024-01-27T09:07:28;100799.38;;;3.90;100.00
64503;BME280;50971;51.940;21.258;2024-01-27T09:17:30;100812.23;;;3.96;100.00
64503;BME280;50971;51.940;21.258;2024-01-27T09:27:32;100818.23;;;3.94;100.00
64503;BME280;50971;51.940;21.258;2024-01-27T09:37:34;100822.91;;;4.12;100.00
64503;BME280;50971;51.940;21.258;2024-01-27T09:47:36;100838.83;;;4.38;100.00
64503;BME280;50971;51.940;21.258;2024-01-27T09:57:38;100844.41;;;4.51;100.00
64503;BME280;50971;51.940;21.258;2024-01-27T10:07:41;100842.39;;;4.64;100.00
64503;BME280;50971;51.940;21.258;2024-01-27T10:17:44;100851.73;;;4.84;100.00
64503;BME280;50971;51.940;21.258;2024-01-27T10:27:46;100861.30;;;4.80;100.00
64503;BME280;50971;51.940;21.258;2024-01-27T10:37:52;100877.79;;;4.81;100.00
64503;BME280;50971;51.940;21.258;2024-01-27T10:48:02;100891.58;;;4.73;100.00
64503;BME280;50971;51.940;21.258;2024-01-27T10:58:04;100896.16;;;4.84;100.00
64503;BME280;50971;51.940;21.258;2024-01-27T11:08:08;100909.30;;;4.99;100.00
64503;BME280;50971;51.940;21.258;2024-01-27T11:18:10;100925.19;;;4.84;100.00
64503;BME280;50971;51.940;21.258;2024-01-27T11:28:14;100943.55;;;4.66;100.00
64503;BME280;50971;51.940;21.258;2024-01-27T11:38:16;100952.58;;;4.35;100.00
64503;BME280;50971;51.940;21.258;2024-01-27T11:48:18;100968.27;;;4.15;100.00
64503;BME280;50971;51.940;21.258;2024-01-27T11:58:19;100978.05;;;4.14;100.00
64503;BME280;50971;51.940;21.258;2024-01-27T12:08:21;100997.79;;;4.31;100.00
64503;BME280;50971;51.940;21.258;2024-01-27T12:18:24;101013.30;;;4.15;100.00
64503;BME280;50971;51.940;21.258;2024-01-27T12:28:27;101033.45;;;3.88;100.00
64503;BME280;50971;51.940;21.258;2024-01-27T12:38:28;101059.06;;;3.76;100.00
64503;BME280;50971;51.940;21.258;2024-01-27T12:48:31;101081.36;;;3.65;100.00
64503;BME280;50971;51.940;21.258;2024-01-27T12:58:33;101102.55;;;3.45;100.00
64503;BME280;50971;51.940;21.258;2024-01-27T13:08:37;101128.10;;;3.33;100.00
64503;BME280;50971;51.940;21.258;2024-01-27T13:18:39;101153.00;;;3.35;100.00
64503;BME280;50971;51.940;21.258;2024-01-27T13:28:41;101167.05;;;3.34;100.00
64503;BME280;50971;51.940;21.258;2024-01-27T13:38:43;101179.28;;;3.34;100.00
64503;BME280;50971;51.940;21.258;2024-01-27T13:48:46;101199.77;;;3.28;100.00
64503;BME280;50971;51.940;21.258;2024-01-27T13:58:49;101214.19;;;3.30;100.00
64503;BME280;50971;51.940;21.258;2024-01-27T14:08:51;101231.55;;;3.41;100.00
64503;BME280;50971;51.940;21.258;2024-01-27T14:18:52;101256.63;;;3.42;100.00
64503;BME280;50971;51.940;21.258;2024-01-27T14:28:55;101279.88;;;3.50;100.00
64503;BME280;50971;51.940;21.258;2024-01-27T14:38:56;101294.73;;;3.45;100.00
64503;BME280;50971;51.940;21.258;2024-01-27T14:48:58;101310.27;;;3.44;100.00
64503;BME280;50971;51.940;21.258;2024-01-27T14:59:00;101331.77;;;3.32;100.00
64503;BME280;50971;51.940;21.258;2024-01-27T15:09:02;101349.48;;;3.14;100.00
64503;BME280;50971;51.940;21.258;2024-01-27T15:19:04;101372.02;;;2.95;100.00
64503;BME280;50971;51.940;21.258;2024-01-27T15:29:06;101391.76;;;2.83;100.00
64503;BME280;50971;51.940;21.258;2024-01-27T15:39:08;101412.13;;;2.77;100.00
64503;BME280;50971;51.940;21.258;2024-01-27T15:49:10;101437.92;;;2.67;100.00
64503;BME280;50971;51.940;21.258;2024-01-27T15:59:13;101461.05;;;2.59;100.00
64503;BME280;50971;51.940;21.258;2024-01-27T16:09:15;101477.02;;;2.51;100.00
64503;BME280;50971;51.940;21.258;2024-01-27T16:19:17;101499.04;;;2.47;100.00
64503;BME280;50971;51.940;21.258;2024-01-27T16:29:19;101521.71;;;2.30;100.00
64503;BME280;50971;51.940;21.258;2024-01-27T16:39:20;101545.44;;;2.10;100.00
64503;BME280;50971;51.940;21.258;2024-01-27T16:49:22;101565.81;;;1.94;100.00
64503;BME280;50971;51.940;21.258;2024-01-27T16:59:24;101578.85;;;1.87;100.00
64503;BME280;50971;51.940;21.258;2024-01-27T17:09:26;101595.75;;;1.89;100.00
64503;BME280;50971;51.940;21.258;2024-01-27T17:19:28;101606.50;;;1.90;100.00
64503;BME280;50971;51.940;21.258;2024-01-27T17:29:29;101617.35;;;1.86;100.00
64503;BME280;50971;51.940;21.258;2024-01-27T17:39:31;101633.89;;;1.86;100.00
64503;BME280;50971;51.940;21.258;2024-01-27T17:49:33;101642.73;;;1.78;100.00
64503;BME280;50971;51.940;21.258;2024-01-27T17:59:38;101656.31;;;1.81;100.00
64503;BME280;50971;51.940;21.258;2024-01-27T18:09:40;101667.35;;;1.81;100.00
64503;BME280;50971;51.940;21.258;2024-01-27T18:19:42;101685.42;;;1.78;100.00
64503;BME280;50971;51.940;21.258;2024-01-27T18:29:44;101696.95;;;1.71;100.00
64503;BME280;50971;51.940;21.258;2024-01-27T18:39:46;101711.15;;;1.71;100.00
64503;BME280;50971;51.940;21.258;2024-01-27T18:49:47;101722.49;;;1.77;100.00
64503;BME280;50971;51.940;21.258;2024-01-27T18:59:49;101739.08;;;1.79;100.00
64503;BME280;50971;51.940;21.258;2024-01-27T19:09:51;101749.48;;;1.83;100.00
64503;BME280;50971;51.940;21.258;2024-01-27T19:19:53;101757.08;;;1.83;100.00
64503;BME280;50971;51.940;21.258;2024-01-27T19:29:56;101768.93;;;1.80;100.00
64503;BME280;50971;51.940;21.258;2024-01-27T19:39:58;101784.80;;;1.71;100.00
64503;BME280;50971;51.940;21.258;2024-01-27T19:50:00;101796.83;;;1.65;100.00
64503;BME280;50971;51.940;21.258;2024-01-27T20:00:03;101809.52;;;1.60;100.00
64503;BME280;50971;51.940;21.258;2024-01-27T20:10:07;101825.48;;;1.61;100.00
64503;BME280;50971;51.940;21.258;2024-01-27T20:20:10;101843.94;;;1.64;100.00
64503;BME280;50971;51.940;21.258;2024-01-27T20:30:12;101859.34;;;1.70;100.00
64503;BME280;50971;51.940;21.258;2024-01-27T20:40:15;101874.83;;;1.81;100.00
64503;BME280;50971;51.940;21.258;2024-01-27T20:50:17;101891.17;;;1.92;100.00
64503;BME280;50971;51.940;21.258;2024-01-27T21:00:19;101903.13;;;1.99;100.00
64503;BME280;50971;51.940;21.258;2024-01-27T21:10:20;101909.86;;;2.05;100.00
64503;BME280;50971;51.940;21.258;2024-01-27T21:20:23;101918.45;;;2.11;100.00
64503;BME280;50971;51.940;21.258;2024-01-27T21:30:24;101937.06;;;2.16;100.00
64503;BME280;50971;51.940;21.258;2024-01-27T21:40:26;101944.50;;;2.13;100.00
64503;BME280;50971;51.940;21.258;2024-01-27T21:50:28;101961.55;;;2.15;100.00
64503;BME280;50971;51.940;21.258;2024-01-27T22:00:30;101973.92;;;2.15;100.00
64503;BME280;50971;51.940;21.258;2024-01-27T22:10:32;101982.77;;;2.17;100.00
64503;BME280;50971;51.940;21.258;2024-01-27T22:20:34;101993.33;;;2.18;100.00
64503;BME280;50971;51.940;21.258;2024-01-27T22:30:35;102010.90;;;2.20;100.00
64503;BME280;50971;51.940;21.258;2024-01-27T22:40:38;102030.02;;;2.19;100.00
64503;BME280;50971;51.940;21.258;2024-01-27T22:50:40;102043.36;;;2.17;100.00
64503;BME280;50971;51.940;21.258;2024-01-27T23:00:42;102055.03;;;2.13;100.00
64503;BME280;50971;51.940;21.258;2024-01-27T23:10:45;102067.69;;;2.13;100.00
64503;BME280;50971;51.940;21.258;2024-01-27T23:20:47;102072.52;;;2.13;100.00
64503;BME280;50971;51.940;21.258;2024-01-27T23:30:48;102089.14;;;2.07;100.00
64503;BME280;50971;51.940;21.258;2024-01-27T23:40:51;102093.67;;;2.05;100.00
64503;BME280;50971;51.940;21.258;2024-01-27T23:50:54;102102.02;;;1.75;100.00
